createdAt,value
2023-09-16T00:00:20.457Z,24.60
2023-09-16T00:02:49.397Z,24.60
2023-09-16T00:05:17.004Z,24.50
2023-09-16T00:07:44.561Z,24.50
2023-09-16T00:10:11.635Z,24.60
2023-09-16T00:12:38.737Z,24.60
2023-09-16T00:15:06.769Z,24.60
2023-09-16T00:17:36.737Z,24.60
2023-09-16T00:20:12.773Z,24.60
2023-09-16T00:22:39.912Z,24.60
2023-09-16T00:25:09.209Z,24.70
2023-09-16T00:27:37.008Z,24.70
2023-09-16T00:30:04.576Z,24.80
2023-09-16T00:32:33.042Z,24.80
2023-09-16T00:35:00.376Z,24.80
2023-09-16T00:37:27.391Z,24.80
2023-09-16T00:39:55.373Z,24.90
2023-09-16T00:42:22.884Z,24.90
2023-09-16T00:44:49.976Z,24.90
2023-09-16T00:47:16.940Z,24.90
2023-09-16T00:49:44.351Z,24.90
2023-09-16T00:52:11.770Z,25.00
2023-09-16T00:54:39.374Z,24.90
2023-09-16T00:57:13.101Z,25.00
2023-09-16T00:59:40.626Z,25.00
2023-09-16T01:02:12.878Z,25.00
2023-09-16T01:04:41.523Z,25.00
2023-09-16T01:07:09.212Z,25.00
2023-09-16T01:09:37.512Z,25.10
2023-09-16T01:12:06.106Z,25.00
2023-09-16T01:14:34.612Z,25.10
2023-09-16T01:17:09.881Z,25.10
2023-09-16T01:19:48.856Z,25.10
2023-09-16T01:22:16.177Z,25.10
2023-09-16T01:24:52.329Z,25.10
2023-09-16T01:27:21.044Z,25.10
2023-09-16T01:29:49.872Z,25.10
2023-09-16T01:32:21.330Z,25.10
2023-09-16T01:34:54.100Z,25.20
2023-09-16T01:37:25.083Z,25.20
2023-09-16T01:39:58.530Z,25.20
2023-09-16T01:42:30.526Z,25.10
2023-09-16T01:44:57.702Z,25.10
2023-09-16T01:47:24.676Z,25.10
2023-09-16T01:49:51.801Z,25.10
2023-09-16T01:52:18.803Z,25.10
2023-09-16T01:54:45.778Z,25.10
2023-09-16T01:57:13.128Z,25.10
2023-09-16T01:59:40.100Z,25.10
2023-09-16T02:02:07.409Z,25.10
2023-09-16T02:04:34.395Z,25.10
2023-09-16T02:07:02.083Z,25.10
2023-09-16T02:09:29.114Z,25.00
2023-09-16T02:11:56.437Z,25.10
2023-09-16T02:14:23.817Z,25.00
2023-09-16T02:16:50.850Z,25.00
2023-09-16T02:19:17.985Z,25.00
2023-09-16T02:21:45.213Z,25.00
2023-09-16T02:24:12.174Z,25.00
2023-09-16T02:26:39.296Z,25.00
2023-09-16T02:29:06.327Z,25.00
2023-09-16T02:31:33.539Z,25.00
2023-09-16T02:34:00.933Z,25.00
2023-09-16T02:36:28.460Z,24.90
2023-09-16T02:38:55.550Z,24.90
2023-09-16T02:41:22.782Z,24.90
2023-09-16T02:43:50.899Z,24.90
2023-09-16T02:46:18.699Z,24.90
2023-09-16T02:48:45.823Z,24.90
2023-09-16T02:51:12.966Z,24.80
2023-09-16T02:53:40.384Z,24.90
2023-09-16T02:56:10.707Z,24.90
2023-09-16T02:58:37.694Z,24.90
2023-09-16T03:01:14.495Z,24.90
2023-09-16T03:03:45.061Z,24.90
2023-09-16T03:06:13.537Z,24.90
2023-09-16T03:08:40.696Z,24.90
2023-09-16T03:11:07.833Z,24.90
2023-09-16T03:13:38.087Z,24.90
2023-09-16T03:16:16.589Z,24.90
2023-09-16T03:18:51.610Z,24.90
2023-09-16T03:21:20.905Z,24.90
2023-09-16T03:23:49.477Z,24.90
2023-09-16T03:26:17.538Z,24.90
2023-09-16T03:28:48.328Z,24.90
2023-09-16T03:31:17.809Z,24.90
2023-09-16T03:33:44.929Z,24.90
2023-09-16T03:36:12.058Z,24.90
2023-09-16T03:38:51.831Z,24.90
2023-09-16T03:41:19.276Z,24.90
2023-09-16T03:43:56.786Z,24.90
2023-09-16T03:46:25.393Z,24.90
2023-09-16T03:48:53.993Z,24.90
2023-09-16T03:51:23.068Z,24.90
2023-09-16T03:53:51.873Z,24.90
2023-09-16T03:56:18.883Z,25.00
2023-09-16T03:58:46.203Z,24.90
2023-09-16T04:01:13.381Z,25.00
2023-09-16T04:03:40.638Z,24.90
2023-09-16T04:06:07.949Z,24.90
2023-09-16T04:08:42.044Z,25.00
2023-09-16T04:11:11.175Z,25.00
2023-09-16T04:13:38.898Z,25.00
2023-09-16T04:16:06.404Z,25.00
2023-09-16T04:18:35.177Z,25.00
2023-09-16T04:21:04.313Z,25.00
2023-09-16T04:23:31.893Z,25.00
2023-09-16T04:26:02.363Z,25.00
2023-09-16T04:28:30.615Z,25.00
2023-09-16T04:31:00.091Z,25.00
2023-09-16T04:33:31.593Z,25.00
2023-09-16T04:35:58.744Z,25.00
2023-09-16T04:38:26.968Z,25.00
2023-09-16T04:40:57.124Z,25.00
2023-09-16T04:43:26.583Z,24.90
2023-09-16T04:45:55.465Z,24.90
2023-09-16T04:48:43.191Z,24.90
2023-09-16T04:51:10.954Z,24.90
2023-09-16T04:53:38.032Z,24.90
2023-09-16T04:56:11.547Z,24.90
2023-09-16T04:58:50.861Z,24.80
2023-09-16T05:01:19.286Z,24.80
2023-09-16T05:03:46.473Z,24.80
2023-09-16T05:06:14.743Z,24.80
2023-09-16T05:08:41.709Z,24.80
2023-09-16T05:11:08.759Z,24.80
2023-09-16T05:13:46.654Z,24.70
2023-09-16T05:16:14.107Z,24.70
2023-09-16T05:18:41.240Z,24.70
2023-09-16T05:21:08.763Z,24.70
2023-09-16T05:23:35.920Z,24.60
2023-09-16T05:26:06.255Z,24.60
2023-09-16T05:28:36.617Z,24.60
2023-09-16T05:31:05.445Z,24.60
2023-09-16T05:33:36.787Z,24.60
2023-09-16T05:36:03.907Z,24.60
2023-09-16T05:38:31.164Z,24.60
2023-09-16T05:40:58.288Z,24.60
2023-09-16T05:43:25.808Z,24.60
2023-09-16T05:45:53.606Z,24.70
2023-09-16T05:48:21.737Z,24.60
2023-09-16T05:50:59.703Z,24.70
2023-09-16T05:53:31.900Z,24.70
2023-09-16T05:56:05.872Z,24.70
2023-09-16T05:58:34.697Z,24.70
2023-09-16T06:01:02.476Z,24.70
2023-09-16T06:03:30.267Z,24.70
2023-09-16T06:06:00.334Z,24.70
2023-09-16T06:08:27.434Z,24.80
2023-09-16T06:10:57.413Z,24.80
2023-09-16T06:13:26.184Z,24.80
2023-09-16T06:15:54.855Z,24.80
2023-09-16T06:18:24.668Z,24.90
2023-09-16T06:20:51.644Z,24.80
2023-09-16T06:23:18.932Z,24.90
2023-09-16T06:25:48.418Z,24.90
2023-09-16T06:28:15.762Z,24.90
2023-09-16T06:30:42.768Z,24.90
2023-09-16T06:33:11.660Z,24.90
2023-09-16T06:35:38.727Z,24.90
2023-09-16T06:38:05.865Z,24.90
2023-09-16T06:40:33.220Z,24.90
2023-09-16T06:43:00.210Z,24.90
2023-09-16T06:45:29.680Z,24.90
2023-09-16T06:47:58.058Z,24.90
2023-09-16T06:50:25.126Z,25.00
2023-09-16T06:52:52.219Z,25.00
2023-09-16T06:55:19.264Z,25.00
2023-09-16T07:00:31.735Z,25.00
2023-09-16T07:02:59.938Z,25.00
2023-09-16T07:05:32.156Z,25.10
2023-09-16T07:08:02.070Z,25.10
2023-09-16T07:10:29.282Z,25.10
2023-09-16T07:12:56.524Z,25.10
2023-09-16T07:15:24.369Z,25.10
2023-09-16T07:17:51.522Z,25.10
2023-09-16T07:20:18.981Z,25.10
2023-09-16T07:22:46.158Z,25.20
2023-09-16T07:25:13.571Z,25.10
2023-09-16T07:27:40.718Z,25.20
2023-09-16T07:30:09.124Z,25.20
2023-09-16T07:32:37.582Z,25.20
2023-09-16T07:35:05.129Z,25.20
2023-09-16T07:37:32.266Z,25.20
2023-09-16T07:39:59.332Z,25.20
2023-09-16T07:42:26.469Z,25.20
2023-09-16T07:44:53.517Z,25.30
2023-09-16T07:47:20.659Z,25.30
2023-09-16T07:49:47.920Z,25.30
2023-09-16T07:52:15.108Z,25.30
2023-09-16T07:54:43.663Z,25.30
2023-09-16T07:57:10.884Z,25.30
2023-09-16T07:59:38.313Z,25.30
2023-09-16T08:02:05.596Z,25.40
2023-09-16T08:04:32.928Z,25.40
2023-09-16T08:07:00.126Z,25.40
2023-09-16T08:09:27.281Z,25.40
2023-09-16T08:11:54.512Z,25.40
2023-09-16T08:14:21.594Z,25.40
2023-09-16T08:16:48.667Z,25.40
2023-09-16T08:19:17.975Z,25.40
2023-09-16T08:21:45.128Z,25.50
2023-09-16T08:24:12.346Z,25.50
2023-09-16T08:26:39.516Z,25.50
2023-09-16T08:29:06.541Z,25.50
2023-09-16T08:31:33.880Z,25.50
2023-09-16T08:34:04.855Z,25.50
2023-09-16T08:36:31.926Z,25.50
2023-09-16T08:38:59.087Z,25.50
2023-09-16T08:42:06.783Z,25.50
2023-09-16T08:44:38.543Z,25.50
2023-09-16T08:47:11.679Z,25.60
2023-09-16T08:49:47.366Z,25.60
2023-09-16T08:52:18.014Z,25.60
2023-09-16T08:54:48.930Z,25.60
2023-09-16T08:57:17.886Z,25.60
2023-09-16T08:59:45.930Z,25.60
2023-09-16T09:02:13.129Z,25.60
2023-09-16T09:04:44.206Z,25.60
2023-09-16T09:07:12.555Z,25.70
2023-09-16T09:09:40.216Z,25.70
2023-09-16T09:12:09.257Z,25.70
2023-09-16T09:14:37.334Z,25.70
2023-09-16T09:17:05.230Z,25.70
2023-09-16T09:19:32.898Z,25.70
2023-09-16T09:22:01.364Z,25.70
2023-09-16T09:24:29.450Z,25.80
2023-09-16T09:26:56.564Z,25.70
2023-09-16T09:29:23.893Z,25.80
2023-09-16T09:31:51.428Z,25.80
2023-09-16T09:34:19.356Z,25.80
2023-09-16T09:36:48.400Z,25.80
2023-09-16T09:39:15.608Z,25.80
2023-09-16T09:41:48.065Z,25.90
2023-09-16T09:44:15.766Z,25.90
2023-09-16T09:46:43.408Z,25.90
2023-09-16T09:49:12.740Z,25.90
2023-09-16T09:51:40.593Z,25.90
2023-09-16T09:54:11.341Z,25.90
2023-09-16T09:56:38.656Z,25.90
2023-09-16T09:59:05.850Z,25.90
2023-09-16T10:01:34.238Z,26.00
2023-09-16T10:04:04.803Z,26.00
2023-09-16T10:06:31.963Z,26.00
2023-09-16T10:08:59.051Z,26.00
2023-09-16T10:11:29.675Z,26.00
2023-09-16T10:13:57.241Z,26.00
2023-09-16T10:16:24.831Z,26.00
2023-09-16T10:18:53.528Z,26.00
2023-09-16T10:21:20.933Z,26.00
2023-09-16T10:23:48.791Z,26.00
2023-09-16T10:26:17.440Z,26.10
2023-09-16T10:28:48.568Z,26.00
2023-09-16T10:31:17.785Z,26.10
2023-09-16T10:33:46.163Z,26.10
2023-09-16T10:36:15.730Z,26.10
2023-09-16T10:38:44.316Z,26.10
2023-09-16T10:41:12.233Z,26.10
2023-09-16T10:43:40.346Z,26.10
2023-09-16T10:46:08.595Z,26.20
2023-09-16T10:48:35.939Z,26.10
2023-09-16T10:51:13.132Z,26.20
2023-09-16T10:53:42.144Z,26.20
2023-09-16T10:56:27.328Z,26.20
2023-09-16T10:59:20.178Z,26.20
2023-09-16T11:01:59.316Z,26.30
2023-09-16T11:04:28.882Z,26.30
2023-09-16T11:06:58.864Z,26.30
2023-09-16T11:09:26.226Z,26.30
2023-09-16T11:11:54.445Z,26.30
2023-09-16T11:14:22.977Z,26.30
2023-09-16T11:16:55.322Z,26.40
2023-09-16T11:19:29.876Z,26.30
2023-09-16T11:21:59.457Z,26.40
2023-09-16T11:24:28.688Z,26.40
2023-09-16T11:27:01.194Z,26.50
2023-09-16T11:29:29.588Z,26.50
2023-09-16T11:31:57.296Z,26.50
2023-09-16T11:34:28.076Z,26.50
2023-09-16T11:36:59.517Z,26.50
2023-09-16T11:39:44.802Z,26.50
2023-09-16T11:42:13.825Z,26.60
2023-09-16T11:44:41.835Z,26.60
2023-09-16T11:47:10.884Z,26.60
2023-09-16T11:49:38.155Z,26.60
2023-09-16T11:52:05.850Z,26.60
2023-09-16T11:54:33.094Z,26.60
2023-09-16T11:57:00.591Z,26.70
2023-09-16T11:59:28.617Z,26.70
2023-09-16T12:01:56.262Z,26.70
2023-09-16T12:04:24.078Z,26.70
2023-09-16T12:06:51.610Z,26.70
2023-09-16T12:09:20.579Z,26.70
2023-09-16T12:11:50.714Z,26.80
2023-09-16T12:14:18.214Z,26.80
2023-09-16T12:16:45.403Z,26.80
2023-09-16T12:19:12.735Z,26.80
2023-09-16T12:21:49.735Z,26.90
2023-09-16T12:24:26.031Z,26.80
2023-09-16T12:26:53.219Z,26.90
2023-09-16T12:29:20.829Z,26.90
2023-09-16T12:31:48.973Z,26.90
2023-09-16T12:34:18.206Z,26.90
2023-09-16T12:36:50.657Z,26.90
2023-09-16T12:39:18.311Z,27.00
2023-09-16T12:41:50.332Z,27.00
2023-09-16T12:44:25.834Z,27.00
2023-09-16T12:46:53.393Z,27.00
2023-09-16T12:49:21.331Z,27.00
2023-09-16T12:51:48.657Z,27.10
2023-09-16T12:54:15.746Z,27.10
2023-09-16T12:56:53.272Z,27.10
2023-09-16T12:59:20.995Z,27.20
2023-09-16T13:01:48.836Z,27.20
2023-09-16T13:04:16.010Z,27.20
2023-09-16T13:06:44.663Z,27.30
2023-09-16T13:09:12.907Z,27.30
2023-09-16T13:11:40.388Z,27.40
2023-09-16T13:14:07.564Z,27.40
2023-09-16T13:16:39.985Z,27.40
2023-09-16T13:19:16.619Z,27.50
2023-09-16T13:21:43.901Z,27.50
2023-09-16T13:24:10.894Z,27.60
2023-09-16T13:26:56.619Z,27.60
2023-09-16T13:29:24.014Z,27.70
2023-09-16T13:32:17.624Z,27.70
2023-09-16T13:34:45.839Z,27.70
2023-09-16T13:37:13.358Z,27.80
2023-09-16T13:39:45.664Z,27.80
2023-09-16T13:42:14.339Z,27.90
2023-09-16T13:44:46.812Z,27.90
2023-09-16T13:47:15.072Z,28.00
2023-09-16T13:49:42.590Z,28.00
2023-09-16T13:52:09.682Z,28.10
2023-09-16T13:54:36.931Z,28.10
2023-09-16T13:57:05.137Z,28.10
2023-09-16T13:59:32.421Z,28.20
2023-09-16T14:01:59.505Z,28.30
2023-09-16T14:04:26.762Z,28.30
2023-09-16T14:06:53.916Z,28.30
2023-09-16T14:09:21.083Z,28.40
2023-09-16T14:11:48.097Z,28.40
2023-09-16T14:14:15.282Z,28.50
2023-09-16T14:16:42.455Z,28.50
2023-09-16T14:19:09.599Z,28.50
2023-09-16T14:21:36.695Z,28.60
2023-09-16T14:24:03.831Z,28.60
2023-09-16T14:26:31.294Z,28.70
2023-09-16T14:28:58.459Z,28.70
2023-09-16T14:31:25.785Z,28.70
2023-09-16T14:33:53.188Z,28.80
2023-09-16T14:36:20.343Z,28.80
2023-09-16T14:38:49.705Z,28.80
2023-09-16T14:41:17.072Z,28.90
2023-09-16T14:43:44.128Z,28.90
2023-09-16T14:46:11.372Z,29.00
2023-09-16T14:48:39.592Z,29.00
2023-09-16T14:51:06.771Z,29.00
2023-09-16T14:53:33.832Z,29.00
2023-09-16T14:56:01.107Z,29.10
2023-09-16T14:58:28.286Z,29.10
2023-09-16T15:00:56.709Z,29.10
2023-09-16T15:03:23.854Z,29.10
2023-09-16T15:05:52.257Z,29.20
2023-09-16T15:08:19.487Z,29.20
2023-09-16T15:10:47.080Z,29.20
2023-09-16T15:13:14.447Z,29.20
2023-09-16T15:15:41.640Z,29.20
2023-09-16T15:18:08.787Z,29.20
2023-09-16T15:20:35.955Z,29.20
2023-09-16T15:23:03.153Z,29.30
2023-09-16T15:25:30.321Z,29.30
2023-09-16T15:27:57.415Z,29.30
2023-09-16T15:30:25.759Z,29.30
2023-09-16T15:32:54.144Z,29.30
2023-09-16T15:35:24.369Z,29.30
2023-09-16T15:37:51.626Z,29.30
2023-09-16T15:40:18.760Z,29.30
2023-09-16T15:42:46.067Z,29.30
2023-09-16T15:45:17.371Z,29.30
2023-09-16T15:47:44.750Z,29.30
2023-09-16T15:50:13.960Z,29.40
2023-09-16T15:52:42.403Z,29.40
2023-09-16T15:55:09.727Z,29.40
2023-09-16T15:57:36.894Z,29.40
2023-09-16T16:00:04.505Z,29.40
2023-09-16T16:02:31.684Z,29.40
2023-09-16T16:04:58.863Z,29.40
2023-09-16T16:07:26.203Z,29.40
2023-09-16T16:09:53.839Z,29.40
2023-09-16T16:12:20.989Z,29.30
2023-09-16T16:14:48.007Z,29.30
2023-09-16T16:17:23.717Z,29.30
2023-09-16T16:19:51.958Z,29.30
2023-09-16T16:22:19.163Z,29.30
2023-09-16T16:24:46.310Z,29.20
2023-09-16T16:27:13.426Z,29.20
2023-09-16T16:29:41.497Z,29.10
2023-09-16T16:32:08.720Z,29.10
2023-09-16T16:34:35.781Z,29.10
2023-09-16T16:37:02.917Z,29.00
2023-09-16T16:39:30.058Z,29.00
2023-09-16T16:41:57.130Z,29.10
2023-09-16T16:44:24.287Z,29.00
2023-09-16T16:46:55.295Z,29.00
2023-09-16T16:49:25.974Z,28.90
2023-09-16T16:51:53.169Z,28.90
2023-09-16T16:54:20.249Z,28.90
2023-09-16T16:56:47.386Z,28.80
2023-09-16T16:59:14.446Z,28.80
2023-09-16T17:01:41.637Z,28.80
2023-09-16T17:04:08.758Z,28.80
2023-09-16T17:06:36.575Z,28.70
2023-09-16T17:09:04.363Z,28.70
2023-09-16T17:11:31.475Z,28.70
2023-09-16T17:14:02.054Z,28.70
2023-09-16T17:16:32.184Z,28.70
2023-09-16T17:19:02.554Z,28.60
2023-09-16T17:21:29.658Z,28.60
2023-09-16T17:23:56.943Z,28.50
2023-09-16T17:26:24.746Z,28.50
2023-09-16T17:28:53.396Z,28.50
2023-09-16T17:31:21.686Z,28.50
2023-09-16T17:33:49.299Z,28.50
2023-09-16T17:36:16.906Z,28.50
2023-09-16T17:38:44.422Z,28.40
2023-09-16T17:41:13.655Z,28.40
2023-09-16T17:43:40.841Z,28.40
2023-09-16T17:46:08.159Z,28.40
2023-09-16T17:48:36.012Z,28.40
2023-09-16T17:51:03.966Z,28.30
2023-09-16T17:53:31.097Z,28.30
2023-09-16T17:55:59.178Z,28.30
2023-09-16T17:58:26.224Z,28.30
2023-09-16T18:00:53.616Z,28.30
2023-09-16T18:03:21.011Z,28.20
2023-09-16T18:05:49.740Z,28.20
2023-09-16T18:08:18.954Z,28.20
2023-09-16T18:10:46.683Z,28.10
2023-09-16T18:13:14.129Z,28.10
2023-09-16T18:15:41.721Z,28.10
2023-09-16T18:18:09.934Z,28.10
2023-09-16T18:20:37.272Z,28.10
2023-09-16T18:23:05.188Z,28.10
2023-09-16T18:25:32.709Z,28.00
2023-09-16T18:28:00.117Z,28.00
2023-09-16T18:30:27.240Z,28.00
2023-09-16T18:32:54.462Z,27.90
2023-09-16T18:35:21.872Z,27.90
2023-09-16T18:37:48.916Z,27.90
2023-09-16T18:40:16.190Z,27.80
2023-09-16T18:42:43.269Z,27.80
2023-09-16T18:45:11.576Z,27.80
2023-09-16T18:47:39.218Z,27.80
2023-09-16T18:50:07.581Z,27.80
2023-09-16T18:52:35.904Z,27.70
2023-09-16T18:55:03.897Z,27.70
2023-09-16T18:57:30.992Z,27.70
2023-09-16T18:59:58.899Z,27.70
2023-09-16T19:02:27.189Z,27.60
2023-09-16T19:04:54.625Z,27.70
2023-09-16T19:07:21.814Z,27.70
2023-09-16T19:09:49.133Z,27.60
2023-09-16T19:12:16.137Z,27.70
2023-09-16T19:14:44.151Z,27.60
2023-09-16T19:17:11.168Z,27.70
2023-09-16T19:19:38.341Z,27.60
2023-09-16T19:22:06.450Z,27.60
2023-09-16T19:24:38.137Z,27.60
2023-09-16T19:27:09.909Z,27.60
2023-09-16T19:29:37.062Z,27.60
2023-09-16T19:32:04.783Z,27.60
2023-09-16T19:34:32.100Z,27.60
2023-09-16T19:37:00.236Z,27.60
2023-09-16T19:39:28.474Z,27.60
2023-09-16T19:41:56.425Z,27.60
2023-09-16T19:44:23.839Z,27.50
2023-09-16T19:46:57.410Z,27.50
2023-09-16T19:49:25.324Z,27.50
2023-09-16T19:51:52.430Z,27.50
2023-09-16T19:54:19.456Z,27.40
2023-09-16T19:57:02.481Z,27.40
2023-09-16T19:59:30.963Z,27.40
2023-09-16T20:01:58.184Z,27.40
2023-09-16T20:04:25.640Z,27.40
2023-09-16T20:06:52.766Z,27.30
2023-09-16T20:09:19.795Z,27.20
2023-09-16T20:11:48.350Z,27.10
2023-09-16T20:14:15.836Z,27.10
2023-09-16T20:16:43.004Z,27.10
2023-09-16T20:19:10.330Z,27.00
2023-09-16T20:21:37.413Z,26.90
2023-09-16T20:24:04.796Z,26.90
2023-09-16T20:26:32.019Z,26.90
2023-09-16T20:28:59.377Z,26.80
2023-09-16T20:31:26.551Z,26.80
2023-09-16T20:34:08.406Z,26.70
2023-09-16T20:36:37.654Z,26.70
2023-09-16T20:39:08.009Z,26.70
2023-09-16T20:41:35.303Z,26.60
2023-09-16T20:44:04.329Z,26.60
2023-09-16T20:46:32.189Z,26.60
2023-09-16T20:48:59.325Z,26.50
2023-09-16T20:51:26.517Z,26.50
2023-09-16T20:53:53.587Z,26.50
2023-09-16T20:56:20.690Z,26.40
2023-09-16T20:58:47.804Z,26.40
2023-09-16T21:01:15.074Z,26.40
2023-09-16T21:03:42.399Z,26.40
2023-09-16T21:06:09.780Z,26.40
2023-09-16T21:08:37.054Z,26.40
2023-09-16T21:11:04.756Z,26.40
2023-09-16T21:13:31.998Z,26.40
2023-09-16T21:15:59.293Z,26.40
2023-09-16T21:18:26.460Z,26.30
2023-09-16T21:20:53.617Z,26.40
2023-09-16T21:23:22.796Z,26.30
2023-09-16T21:25:50.077Z,26.30
2023-09-16T21:28:18.132Z,26.30
2023-09-16T21:30:45.169Z,26.30
2023-09-16T21:33:12.597Z,26.30
2023-09-16T21:35:39.741Z,26.20
2023-09-16T21:38:06.863Z,26.20
2023-09-16T21:40:33.977Z,26.20
2023-09-16T21:43:01.422Z,26.20
2023-09-16T21:45:28.603Z,26.10
2023-09-16T21:47:56.426Z,26.10
2023-09-16T21:50:23.747Z,26.00
2023-09-16T21:52:50.880Z,26.00
2023-09-16T21:55:18.026Z,26.00
2023-09-16T21:57:45.159Z,25.90
2023-09-16T22:00:25.177Z,25.90
2023-09-16T22:02:52.966Z,25.90
2023-09-16T22:05:20.834Z,25.90
2023-09-16T22:07:48.910Z,25.90
2023-09-16T22:10:16.743Z,25.80
2023-09-16T22:12:44.096Z,25.80
2023-09-16T22:15:12.352Z,25.80
2023-09-16T22:17:42.343Z,25.80
2023-09-16T22:20:11.115Z,25.70
2023-09-16T22:22:41.336Z,25.70
2023-09-16T22:25:11.425Z,25.70
2023-09-16T22:27:38.974Z,25.70
2023-09-16T22:30:07.842Z,25.70
2023-09-16T22:32:35.703Z,25.70
2023-09-16T22:35:05.003Z,25.60
2023-09-16T22:37:33.496Z,25.60
2023-09-16T22:40:00.617Z,25.60
2023-09-16T22:42:27.678Z,25.60
2023-09-16T22:45:05.106Z,25.60
2023-09-16T22:47:34.611Z,25.60
2023-09-16T22:50:02.638Z,25.60
2023-09-16T22:52:31.940Z,25.50
2023-09-16T22:55:00.369Z,25.50
2023-09-16T22:57:27.989Z,25.50
2023-09-16T22:59:56.970Z,25.50
2023-09-16T23:02:25.085Z,25.40
2023-09-16T23:04:53.011Z,25.40
2023-09-16T23:07:21.148Z,25.40
2023-09-16T23:09:51.842Z,25.40
2023-09-16T23:12:19.133Z,25.40
2023-09-16T23:14:46.617Z,25.40
2023-09-16T23:17:13.746Z,25.30
2023-09-16T23:19:41.246Z,25.30
2023-09-16T23:22:08.627Z,25.30
2023-09-16T23:24:35.712Z,25.30
2023-09-16T23:27:03.185Z,25.30
2023-09-16T23:29:30.775Z,25.30
2023-09-16T23:31:58.109Z,25.30
2023-09-16T23:34:25.214Z,25.30
2023-09-16T23:36:52.355Z,25.20
2023-09-16T23:39:19.426Z,25.20
2023-09-16T23:41:47.081Z,25.20
2023-09-16T23:44:15.877Z,25.20
2023-09-16T23:46:43.224Z,25.10
2023-09-16T23:49:10.603Z,25.10
2023-09-16T23:51:37.802Z,25.10
2023-09-16T23:54:05.006Z,25.10
2023-09-16T23:56:32.021Z,25.00
2023-09-16T23:58:59.636Z,25.00
